Weather at Majuro Airfield [CLOSED]

Public forecast

Using degrees Celsius for public forecast. Weather courtesy of forecast.io.

Closest aviation weather report (METAR) to Majuro Airfield

Report is more than 2 hours old.

Closest report is Marshall Islands International Airport, 6.7 nm (12.4 km) WSW.

2024/05/24 22:59 (retrieved 3 hours ago)

PKMJ 242259Z 05011K 14SM SCT014 BKN045 OVC110 28/25 A2987

Closest aviation forecast (TAF) to Majuro Airfield

Forecast is more than 6 hours old.

Closest forecast is Andersen Air Force Base, 1,608.9 nm (2,979.8 km) WNW.

2024/05/24 18:12 (retrieved 8 hours ago)

TAF PGUA 241800Z 2418/2524 09010G15KT 9999 SCT010 BKN020 QNH2989INS TEMPO 2418/2502 6000 SHRA BKN012 TX30/2502Z TN26/2419Z